Shelburn, Indiana
Current Conditions -  °F | °C
As of 3:15 PM on Saturday 25 Oct 2014 (Local Time) from KRSV Reporting Station
Clear Clear  
Wind Chill: 81°   Ceiling: Unl
Heat Index: 81°   Visibility: 10mi
Dew Point: 53°   Wind: 12mph
Humidity: 38%   Direction: 300°WNW
Pressure: 29.98"   Gusts: NA
Location:  39.18°N, 87.39°W
Report Text: KRSV 251915Z AUTO 30010KT 10SM CLR 27/12 A2998 RMK AO2 T02700115
Loading
Personal Weather Stations






























Interactive Weather Map
Tropical Storm Tracking
New forecast layout! Learn more

10-Day Weather Forecast

Advertisements
Track Severe Weather on mobile